Time;durP1;ratioP1;P1;durP2;ratioP2;P2;SDS_P1;SDS_P2;PMS_P1;PMS_P2;Temp;Humidity;BMP_temperature;BMP_pressure;BME280_temperature;BME280_humidity;BME280_pressure;Samples;Min_cycle;Max_cycle;Signal;HPM_P1;HPM_P2
2023/09/16 00:00:13;;;;;;;796.35;520.53;;;;;;;;;;5027968;28;20451;-70
2023/09/16 00:02:43;;;;;;;792.13;514.88;;;;;;;;;;5031737;28;20423;-70
2023/09/16 00:05:12;;;;;;;785.03;500.67;;;;;;;;;;5030517;28;20522;-71
2023/09/16 00:07:39;;;;;;;780.67;489.10;;;;;;;;;;5028214;28;20850;-70
2023/09/16 00:10:06;;;;;;;785.83;495.17;;;;;;;;;;5030529;28;20435;-70
2023/09/16 00:12:33;;;;;;;793.15;506.27;;;;;;;;;;5047660;28;20921;-70
2023/09/16 00:15:01;;;;;;;796.50;512.45;;;;;;;;;;5036734;28;20928;-70
2023/09/16 00:17:28;;;;;;;796.85;520.00;;;;;;;;;;5042832;28;20940;-70
2023/09/16 00:19:55;;;;;;;789.80;508.75;;;;;;;;;;5033330;28;20967;-70
2023/09/16 00:22:24;;;;;;;788.30;508.23;;;;;;;;;;5036919;28;20772;-70
2023/09/16 00:24:52;;;;;;;789.97;504.98;;;;;;;;;;5038653;28;20432;-70
2023/09/16 00:27:19;;;;;;;791.58;509.00;;;;;;;;;;5022535;28;20472;-70
2023/09/16 00:29:46;;;;;;;787.47;497.73;;;;;;;;;;5027258;28;20507;-71
2023/09/16 00:32:16;;;;;;;786.67;497.80;;;;;;;;;;5033528;28;20506;-71
2023/09/16 00:34:43;;;;;;;791.70;502.92;;;;;;;;;;5029421;28;20509;-70
2023/09/16 00:37:10;;;;;;;785.35;506.30;;;;;;;;;;5021057;28;20497;-71
2023/09/16 00:39:41;;;;;;;781.97;495.93;;;;;;;;;;5025088;28;20430;-71
2023/09/16 00:42:08;;;;;;;804.88;520.85;;;;;;;;;;5036643;28;20509;-70
2023/09/16 00:44:35;;;;;;;792.20;507.85;;;;;;;;;;5034839;28;20426;-70
2023/09/16 00:47:03;;;;;;;791.67;498.05;;;;;;;;;;5030809;28;20978;-70
2023/09/16 00:49:30;;;;;;;781.65;498.83;;;;;;;;;;5030680;28;20510;-70
2023/09/16 00:51:58;;;;;;;782.47;483.85;;;;;;;;;;5033080;28;20439;-70
2023/09/16 00:54:25;;;;;;;779.90;484.98;;;;;;;;;;5028606;28;20435;-70
2023/09/16 00:56:53;;;;;;;778.47;477.48;;;;;;;;;;5021726;28;20442;-70
2023/09/16 00:59:22;;;;;;;784.25;488.00;;;;;;;;;;5029336;28;20435;-70
2023/09/16 01:01:51;;;;;;;781.88;489.20;;;;;;;;;;5036069;28;20428;-70
2023/09/16 01:04:23;;;;;;;780.78;495.70;;;;;;;;;;5031066;28;21004;-70
2023/09/16 01:06:52;;;;;;;781.85;498.85;;;;;;;;;;5033830;28;20435;-70
2023/09/16 01:09:20;;;;;;;781.45;495.55;;;;;;;;;;5024193;28;20429;-71
2023/09/16 01:11:48;;;;;;;785.28;501.70;;;;;;;;;;5032165;28;20463;-70
2023/09/16 01:14:20;;;;;;;779.28;492.73;;;;;;;;;;5053977;28;20435;-69
2023/09/16 01:16:53;;;;;;;783.63;489.80;;;;;;;;;;5030661;28;20591;-69
2023/09/16 01:19:20;;;;;;;782.00;498.98;;;;;;;;;;5026775;28;25094;-69
2023/09/16 01:21:48;;;;;;;785.45;483.13;;;;;;;;;;5025044;28;21192;-69
2023/09/16 01:24:24;;;;;;;789.10;480.85;;;;;;;;;;5025797;28;20427;-69
2023/09/16 01:26:52;;;;;;;784.63;481.35;;;;;;;;;;5027143;28;20435;-69
2023/09/16 01:29:20;;;;;;;780.42;483.63;;;;;;;;;;5031408;28;20431;-70
2023/09/16 01:31:48;;;;;;;787.80;497.70;;;;;;;;;;5029569;28;20907;-70
2023/09/16 01:34:22;;;;;;;785.92;486.67;;;;;;;;;;5025443;28;20506;-69
2023/09/16 01:36:54;;;;;;;802.95;489.33;;;;;;;;;;5028838;28;20440;-69
2023/09/16 01:39:23;;;;;;;803.28;488.83;;;;;;;;;;5028719;28;20455;-69
2023/09/16 01:41:51;;;;;;;795.15;468.60;;;;;;;;;;5023856;28;20435;-70
2023/09/16 01:44:21;;;;;;;804.28;473.65;;;;;;;;;;5029096;28;20512;-70
2023/09/16 01:46:49;;;;;;;796.97;456.65;;;;;;;;;;5032107;28;20429;-69
2023/09/16 01:49:16;;;;;;;811.15;483.83;;;;;;;;;;5042476;28;20491;-70
2023/09/16 01:51:49;;;;;;;810.28;479.67;;;;;;;;;;5026310;28;20463;-69
2023/09/16 01:54:19;;;;;;;697.30;478.17;;;;;;;;;;5042825;28;20435;-69
2023/09/16 01:56:47;;;;;;;846.80;449.13;;;;;;;;;;5028105;28;21024;-69
2023/09/16 01:59:20;;;;;;;773.20;495.65;;;;;;;;;;5029702;28;20435;-69
2023/09/16 02:01:50;;;;;;;822.72;488.40;;;;;;;;;;5027751;28;20439;-69
2023/09/16 02:04:17;;;;;;;665.50;544.33;;;;;;;;;;5025799;28;20427;-69
2023/09/16 02:06:46;;;;;;;650.35;529.63;;;;;;;;;;5023657;28;20433;-69
2023/09/16 02:09:14;;;;;;;597.85;474.20;;;;;;;;;;5025202;28;20434;-69
2023/09/16 02:11:41;;;;;;;621.50;552.60;;;;;;;;;;5034596;28;20432;-70
2023/09/16 02:14:11;;;;;;;605.15;518.33;;;;;;;;;;5022065;28;20777;-70
2023/09/16 02:16:39;;;;;;;625.83;555.60;;;;;;;;;;5025232;28;20530;-70
2023/09/16 02:19:09;;;;;;;618.42;540.45;;;;;;;;;;5031940;28;20466;-70
2023/09/16 02:21:36;;;;;;;668.22;599.33;;;;;;;;;;5030034;28;20507;-69
2023/09/16 02:24:06;;;;;;;632.70;563.70;;;;;;;;;;5040617;28;20436;-69
2023/09/16 02:26:33;;;;;;;637.30;551.97;;;;;;;;;;5027924;28;20515;-69
2023/09/16 02:29:00;;;;;;;663.47;593.53;;;;;;;;;;5029750;28;20599;-69
2023/09/16 02:31:27;;;;;;;637.78;555.28;;;;;;;;;;5025649;28;20483;-70
2023/09/16 02:33:58;;;;;;;622.27;551.17;;;;;;;;;;5027789;28;20436;-69
2023/09/16 02:36:27;;;;;;;602.40;491.55;;;;;;;;;;5019999;28;20506;-69
2023/09/16 02:38:54;;;;;;;586.35;436.60;;;;;;;;;;5019348;28;20437;-70
2023/09/16 02:41:21;;;;;;;604.70;499.25;;;;;;;;;;5027353;28;20944;-69
2023/09/16 02:43:48;;;;;;;607.42;520.92;;;;;;;;;;5038109;28;20439;-70
2023/09/16 02:46:17;;;;;;;606.58;511.13;;;;;;;;;;5028618;28;20431;-69
2023/09/16 02:48:44;;;;;;;597.88;515.65;;;;;;;;;;5031647;28;20434;-70
2023/09/16 02:51:11;;;;;;;592.80;492.63;;;;;;;;;;5032704;28;20939;-70
2023/09/16 02:53:41;;;;;;;611.25;544.63;;;;;;;;;;5054958;28;20425;-69
2023/09/16 02:56:09;;;;;;;601.63;534.97;;;;;;;;;;5033525;28;20504;-70
2023/09/16 02:58:39;;;;;;;609.95;542.95;;;;;;;;;;5030936;28;20435;-69
2023/09/16 03:01:10;;;;;;;600.47;531.10;;;;;;;;;;5048874;28;20513;-70
2023/09/16 03:03:41;;;;;;;591.25;501.13;;;;;;;;;;5057138;28;20466;-69
2023/09/16 03:06:09;;;;;;;591.20;500.10;;;;;;;;;;5042048;28;20436;-69
2023/09/16 03:08:36;;;;;;;562.40;387.85;;;;;;;;;;5034384;28;20430;-69
2023/09/16 03:11:06;;;;;;;571.93;426.43;;;;;;;;;;5031345;28;20829;-69
2023/09/16 03:13:34;;;;;;;558.42;350.17;;;;;;;;;;5035106;28;20435;-69
2023/09/16 03:16:14;;;;;;;535.33;278.50;;;;;;;;;;5048850;28;20433;-69
2023/09/16 03:18:52;;;;;;;575.17;428.48;;;;;;;;;;5035475;28;20463;-70
2023/09/16 03:21:22;;;;;;;558.47;349.20;;;;;;;;;;5029630;28;20436;-70
2023/09/16 03:23:50;;;;;;;533.83;275.00;;;;;;;;;;5028825;28;20897;-69
2023/09/16 03:26:17;;;;;;;565.28;382.80;;;;;;;;;;5032336;28;20916;-69
2023/09/16 03:28:45;;;;;;;126.87;53.00;;;;;;;;;;5027712;28;20510;-69
2023/09/16 03:31:14;;;;;;;126.35;49.08;;;;;;;;;;5026743;28;20431;-69
2023/09/16 03:33:41;;;;;;;78.32;37.70;;;;;;;;;;5036741;28;20454;-70
2023/09/16 03:36:09;;;;;;;114.15;44.67;;;;;;;;;;5027687;28;20430;-69
2023/09/16 03:38:44;;;;;;;123.18;46.75;;;;;;;;;;5029110;28;20487;-69
2023/09/16 03:41:12;;;;;;;127.90;49.33;;;;;;;;;;5031128;28;20510;-69
2023/09/16 03:43:39;;;;;;;128.63;48.08;;;;;;;;;;5033419;28;20426;-69
2023/09/16 03:46:06;;;;;;;133.57;49.08;;;;;;;;;;5040540;28;20513;-69
2023/09/16 03:48:33;;;;;;;133.20;47.67;;;;;;;;;;5028138;28;20434;-69
2023/09/16 03:51:01;;;;;;;130.57;48.60;;;;;;;;;;5039497;28;20529;-71
2023/09/16 03:53:28;;;;;;;139.20;49.90;;;;;;;;;;5029195;28;20462;-69
2023/09/16 03:56:08;;;;;;;140.40;50.70;;;;;;;;;;5041677;28;20461;-69
2023/09/16 03:58:36;;;;;;;141.20;49.17;;;;;;;;;;5033523;28;20426;-69
2023/09/16 04:01:03;;;;;;;126.25;49.47;;;;;;;;;;5036521;28;20427;-69
2023/09/16 04:03:31;;;;;;;117.28;53.60;;;;;;;;;;5031568;28;20428;-70
2023/09/16 04:06:03;;;;;;;145.98;57.53;;;;;;;;;;5030020;28;20461;-69
2023/09/16 04:08:31;;;;;;;136.90;53.38;;;;;;;;;;5029616;28;20477;-69
2023/09/16 04:11:08;;;;;;;131.02;51.40;;;;;;;;;;5043323;28;20440;-69
2023/09/16 04:13:35;;;;;;;131.30;49.58;;;;;;;;;;5038998;28;20430;-69
2023/09/16 04:16:02;;;;;;;132.13;49.10;;;;;;;;;;5037121;28;20434;-70
2023/09/16 04:18:34;;;;;;;134.38;49.58;;;;;;;;;;5036810;28;20427;-70
2023/09/16 04:21:03;;;;;;;128.60;48.22;;;;;;;;;;5031639;28;20429;-69
2023/09/16 04:23:30;;;;;;;129.40;47.27;;;;;;;;;;5026446;28;20514;-70
2023/09/16 04:25:58;;;;;;;127.03;47.47;;;;;;;;;;5042927;28;20433;-69
2023/09/16 04:28:25;;;;;;;130.35;46.50;;;;;;;;;;5030323;28;20865;-69
2023/09/16 04:30:53;;;;;;;128.07;46.83;;;;;;;;;;5025485;28;20481;-69
2023/09/16 04:33:23;;;;;;;117.97;44.05;;;;;;;;;;5026766;28;20430;-69
2023/09/16 04:35:52;;;;;;;115.07;43.22;;;;;;;;;;5024274;28;20435;-69
2023/09/16 04:38:20;;;;;;;116.78;42.88;;;;;;;;;;5026110;28;20457;-69
2023/09/16 04:40:47;;;;;;;118.40;45.63;;;;;;;;;;5031573;28;20486;-69
2023/09/16 04:43:15;;;;;;;119.05;45.63;;;;;;;;;;5032681;28;21007;-69
2023/09/16 04:45:44;;;;;;;123.07;46.17;;;;;;;;;;5026273;28;20442;-69
2023/09/16 04:48:15;;;;;;;136.93;48.25;;;;;;;;;;5028466;28;20438;-69
2023/09/16 04:50:46;;;;;;;132.30;48.20;;;;;;;;;;5034246;28;20430;-70
2023/09/16 04:53:14;;;;;;;143.88;50.92;;;;;;;;;;5025846;28;20962;-70
2023/09/16 04:55:41;;;;;;;144.80;51.25;;;;;;;;;;5041247;28;20427;-69
2023/09/16 04:58:09;;;;;;;114.85;109.05;;;;;;;;;;5021420;28;20516;-69
2023/09/16 05:00:38;;;;;;;127.38;120.90;;;;;;;;;;5028236;28;20430;-70
2023/09/16 05:03:05;;;;;;;123.75;117.45;;;;;;;;;;5023742;28;20939;-70
2023/09/16 05:05:33;;;;;;;134.73;127.93;;;;;;;;;;5023626;28;20434;-69
2023/09/16 05:08:00;;;;;;;151.45;143.95;;;;;;;;;;5026302;28;20598;-69
2023/09/16 05:10:28;;;;;;;126.43;120.00;;;;;;;;;;5030280;28;20441;-70
2023/09/16 05:12:55;;;;;;;117.40;111.40;;;;;;;;;;5023227;28;20460;-70
2023/09/16 05:15:26;;;;;;;135.90;129.05;;;;;;;;;;5033408;28;20512;-69
2023/09/16 05:17:56;;;;;;;123.50;117.35;;;;;;;;;;5050784;28;20531;-69
2023/09/16 05:20:23;;;;;;;117.30;111.35;;;;;;;;;;5029299;28;20425;-69
2023/09/16 05:22:50;;;;;;;129.95;123.40;;;;;;;;;;5031975;28;20518;-69
2023/09/16 05:25:18;;;;;;;133.20;126.65;;;;;;;;;;5034368;28;20428;-69
2023/09/16 05:27:46;;;;;;;121.78;115.57;;;;;;;;;;5026566;28;20512;-69
2023/09/16 05:30:16;;;;;;;110.47;104.88;;;;;;;;;;5039676;28;20447;-69
2023/09/16 05:32:43;;;;;;;109.25;103.65;;;;;;;;;;5031096;28;20461;-69
2023/09/16 05:35:13;;;;;;;132.70;125.97;;;;;;;;;;5030134;28;20444;-69
2023/09/16 05:37:40;;;;;;;136.65;129.57;;;;;;;;;;5020416;28;20539;-70
2023/09/16 05:40:08;;;;;;;130.05;123.45;;;;;;;;;;5019121;28;20512;-69
2023/09/16 05:42:35;;;;;;;121.47;115.38;;;;;;;;;;5023904;28;20995;-70
2023/09/16 05:45:06;;;;;;;117.68;111.68;;;;;;;;;;5016058;28;20516;-69
2023/09/16 05:47:33;;;;;;;128.55;121.95;;;;;;;;;;5026378;28;20439;-68
2023/09/16 05:50:00;;;;;;;127.55;121.07;;;;;;;;;;5024264;28;20429;-66
2023/09/16 05:52:30;;;;;;;108.03;102.40;;;;;;;;;;5027357;28;20496;-66
2023/09/16 05:54:57;;;;;;;131.55;124.95;;;;;;;;;;5016435;28;20430;-67
2023/09/16 05:57:25;;;;;;;83.03;78.63;;;;;;;;;;5019434;28;20435;-67
2023/09/16 05:59:52;;;;;;;87.40;82.88;;;;;;;;;;5022372;28;20832;-67
2023/09/16 06:02:22;;;;;;;67.93;64.22;;;;;;;;;;5036353;28;20512;-66
2023/09/16 06:04:49;;;;;;;95.05;90.13;;;;;;;;;;5015597;28;20522;-66
2023/09/16 06:07:17;;;;;;;87.65;83.07;;;;;;;;;;5021370;28;20518;-66
2023/09/16 06:09:44;;;;;;;92.85;88.03;;;;;;;;;;5029652;28;20514;-66
2023/09/16 06:12:11;;;;;;;71.30;67.45;;;;;;;;;;5050784;28;20434;-67
2023/09/16 06:14:39;;;;;;;76.40;72.35;;;;;;;;;;5020729;28;20438;-67
2023/09/16 06:17:06;;;;;;;94.95;90.03;;;;;;;;;;5023518;28;20439;-68
2023/09/16 06:19:34;;;;;;;70.10;66.40;;;;;;;;;;5030190;28;20446;-66
2023/09/16 06:22:01;;;;;;;53.35;50.45;;;;;;;;;;5021960;28;20441;-67
2023/09/16 06:24:28;;;;;;;55.90;52.90;;;;;;;;;;5029126;28;20509;-67
2023/09/16 06:27:02;;;;;;;36.65;25.98;;;;;;;;;;5027984;28;20428;-67
2023/09/16 06:29:29;;;;;;;89.00;33.08;;;;;;;;;;5030629;28;20436;-67
2023/09/16 06:32:00;;;;;;;99.72;35.55;;;;;;;;;;5032160;28;20438;-67
2023/09/16 06:34:30;;;;;;;91.70;33.50;;;;;;;;;;5023837;28;20507;-67
2023/09/16 06:36:59;;;;;;;107.70;38.90;;;;;;;;;;5025611;28;20427;-67
2023/09/16 06:39:27;;;;;;;123.72;44.00;;;;;;;;;;5028931;28;20464;-67
2023/09/16 06:41:54;;;;;;;119.60;43.53;;;;;;;;;;5027474;28;20509;-68
2023/09/16 06:44:21;;;;;;;135.73;52.83;;;;;;;;;;5030469;28;20425;-67
2023/09/16 06:46:48;;;;;;;127.53;42.35;;;;;;;;;;5025478;28;20431;-68
2023/09/16 06:49:19;;;;;;;43.30;23.70;;;;;;;;;;5028081;28;20429;-68
2023/09/16 06:51:47;;;;;;;101.22;35.72;;;;;;;;;;5029618;28;20462;-68
2023/09/16 06:54:17;;;;;;;78.65;34.45;;;;;;;;;;5031696;28;20446;-68
2023/09/16 06:56:44;;;;;;;122.88;45.60;;;;;;;;;;5026217;28;20437;-68
2023/09/16 06:59:14;;;;;;;79.63;75.50;;;;;;;;;;5030874;28;22383;-69
2023/09/16 07:01:42;;;;;;;127.07;120.82;;;;;;;;;;5024940;28;20436;-68
2023/09/16 07:04:09;;;;;;;116.70;110.70;;;;;;;;;;5027144;28;20555;-68
2023/09/16 07:06:36;;;;;;;122.63;62.88;;;;;;;;;;5030046;28;21134;-68
2023/09/16 07:09:03;;;;;;;120.47;58.60;;;;;;;;;;5028997;28;20426;-68
2023/09/16 07:11:30;;;;;;;129.45;59.15;;;;;;;;;;5027982;28;20431;-69
2023/09/16 07:13:58;;;;;;;129.35;59.28;;;;;;;;;;5030333;28;20992;-69
2023/09/16 07:16:35;;;;;;;31.27;21.07;;;;;;;;;;5033180;28;20429;-68
2023/09/16 07:19:02;;;;;;;83.17;38.17;;;;;;;;;;5024916;28;20513;-69
2023/09/16 07:21:31;;;;;;;89.57;85.03;;;;;;;;;;5026443;28;20488;-69
2023/09/16 07:24:00;;;;;;;107.28;101.85;;;;;;;;;;5023590;28;20519;-68
2023/09/16 07:26:31;;;;;;;357.45;338.98;;;;;;;;;;5021809;28;20442;-69
2023/09/16 07:28:58;;;;;;;162.80;154.75;;;;;;;;;;5025709;28;20825;-68
2023/09/16 07:31:27;;;;;;;943.88;783.05;;;;;;;;;;5025602;28;20442;-68
2023/09/16 07:33:54;;;;;;;874.38;747.00;;;;;;;;;;5027826;28;20437;-69
2023/09/16 07:36:22;;;;;;;866.20;726.53;;;;;;;;;;5030316;28;20434;-69
2023/09/16 07:38:49;;;;;;;3.30;1.90;;;;;;;;;;5023208;28;20466;-69
2023/09/16 07:41:16;;;;;;;4.88;3.50;;;;;;;;;;5024243;28;20442;-69
2023/09/16 07:43:43;;;;;;;2.47;2.28;;;;;;;;;;5030243;28;20513;-69
2023/09/16 07:46:10;;;;;;;2.05;1.95;;;;;;;;;;5043628;28;21112;-68
2023/09/16 07:48:38;;;;;;;2.15;2.00;;;;;;;;;;5024231;28;20584;-68
2023/09/16 07:51:05;;;;;;;2.65;2.30;;;;;;;;;;5030440;28;20445;-68
2023/09/16 07:53:32;;;;;;;2.42;2.28;;;;;;;;;;5027314;28;20441;-69
2023/09/16 07:56:00;;;;;;;3.10;2.00;;;;;;;;;;5027190;28;20875;-73
2023/09/16 07:58:27;;;;;;;2.97;2.10;;;;;;;;;;5021812;28;20546;-72
2023/09/16 08:00:54;;;;;;;2.40;2.20;;;;;;;;;;5015354;28;20441;-73
2023/09/16 08:03:22;;;;;;;2.67;2.40;;;;;;;;;;5023782;28;20435;-72
2023/09/16 08:05:50;;;;;;;2.23;2.10;;;;;;;;;;5018279;28;20866;-71
2023/09/16 08:08:20;;;;;;;2.05;1.85;;;;;;;;;;5025602;28;20437;-73
2023/09/16 08:10:51;;;;;;;2.67;2.40;;;;;;;;;;5025344;28;20925;-74
2023/09/16 08:13:19;;;;;;;2.88;2.15;;;;;;;;;;5018320;28;20479;-73
2023/09/16 08:15:46;;;;;;;2.72;2.42;;;;;;;;;;5023773;28;20434;-72
2023/09/16 08:18:13;;;;;;;2.30;2.10;;;;;;;;;;5023729;28;20515;-73
2023/09/16 08:20:40;;;;;;;2.60;2.40;;;;;;;;;;5043550;28;20447;-71
2023/09/16 08:23:09;;;;;;;2.28;2.15;;;;;;;;;;5022579;28;20422;-73
2023/09/16 08:25:39;;;;;;;2.20;2.00;;;;;;;;;;5019454;28;20439;-72
2023/09/16 08:28:06;;;;;;;2.30;2.15;;;;;;;;;;5017743;28;20829;-71
2023/09/16 08:30:33;;;;;;;2.25;2.05;;;;;;;;;;5024575;28;20432;-73
2023/09/16 08:33:00;;;;;;;2.37;2.13;;;;;;;;;;5025361;28;20529;-72
2023/09/16 08:35:27;;;;;;;2.30;2.20;;;;;;;;;;5025182;28;20463;-73
2023/09/16 08:37:55;;;;;;;2.97;2.60;;;;;;;;;;5018167;28;20809;-72
2023/09/16 08:40:22;;;;;;;4.30;2.10;;;;;;;;;;5023317;28;20449;-72
2023/09/16 08:42:58;;;;;;;2.20;2.05;;;;;;;;;;5024132;28;20432;-71
2023/09/16 08:45:26;;;;;;;2.30;2.10;;;;;;;;;;5017340;28;20556;-72
2023/09/16 08:47:57;;;;;;;2.60;2.38;;;;;;;;;;5019468;28;20532;-73
2023/09/16 08:50:25;;;;;;;2.33;2.22;;;;;;;;;;5022438;28;20500;-73
2023/09/16 08:52:58;;;;;;;3.15;2.15;;;;;;;;;;5023851;28;20450;-72
2023/09/16 08:55:27;;;;;;;2.58;2.42;;;;;;;;;;5024632;28;20448;-72
2023/09/16 08:58:01;;;;;;;2.53;2.42;;;;;;;;;;5022435;28;20967;-73
2023/09/16 09:00:28;;;;;;;2.30;2.20;;;;;;;;;;5021761;28;20541;-73
2023/09/16 09:02:55;;;;;;;2.75;2.28;;;;;;;;;;5021353;28;20442;-73
2023/09/16 09:05:23;;;;;;;2.70;2.37;;;;;;;;;;5020128;28;20449;-74
2023/09/16 09:07:50;;;;;;;3.20;2.45;;;;;;;;;;5018675;28;20493;-73
2023/09/16 09:10:18;;;;;;;2.70;2.50;;;;;;;;;;5027826;28;20521;-73
2023/09/16 09:12:45;;;;;;;2.50;2.35;;;;;;;;;;5030020;28;20927;-72
2023/09/16 09:15:13;;;;;;;2.95;2.70;;;;;;;;;;5023535;28;20522;-73
2023/09/16 09:17:45;;;;;;;2.90;2.47;;;;;;;;;;5026196;28;20437;-73
2023/09/16 09:20:15;;;;;;;2.83;2.63;;;;;;;;;;5015370;28;20543;-72
2023/09/16 09:22:42;;;;;;;2.72;2.55;;;;;;;;;;5029795;28;20516;-71
2023/09/16 09:25:09;;;;;;;2.92;2.72;;;;;;;;;;5021412;28;20886;-72
2023/09/16 09:27:37;;;;;;;2.83;2.47;;;;;;;;;;5022114;28;20592;-72
2023/09/16 09:30:04;;;;;;;2.35;2.25;;;;;;;;;;5022403;28;21128;-65
2023/09/16 09:32:32;;;;;;;3.00;2.80;;;;;;;;;;5020980;28;20439;-65
2023/09/16 09:35:06;;;;;;;2.50;2.40;;;;;;;;;;5021679;28;20458;-65
2023/09/16 09:37:34;;;;;;;3.97;2.95;;;;;;;;;;5018173;28;20442;-65
2023/09/16 09:40:11;;;;;;;4.43;2.60;;;;;;;;;;5025999;28;21016;-65
2023/09/16 09:42:49;;;;;;;2.70;2.50;;;;;;;;;;5018048;28;24105;-65
2023/09/16 09:45:18;;;;;;;2.80;2.67;;;;;;;;;;5020423;28;20905;-65
2023/09/16 09:47:52;;;;;;;4.13;2.78;;;;;;;;;;5018368;28;20566;-66
2023/09/16 09:50:20;;;;;;;2.93;2.70;;;;;;;;;;5018806;28;20438;-65
2023/09/16 09:52:47;;;;;;;3.40;2.92;;;;;;;;;;5020768;28;20443;-65
2023/09/16 09:55:24;;;;;;;3.17;2.88;;;;;;;;;;5019311;28;20437;-65
2023/09/16 09:57:52;;;;;;;3.60;2.97;;;;;;;;;;5025424;28;20442;-65
2023/09/16 10:00:21;;;;;;;3.53;3.23;;;;;;;;;;5020004;28;20439;-65
2023/09/16 10:02:49;;;;;;;3.00;2.80;;;;;;;;;;5027174;28;20440;-65
2023/09/16 10:05:20;;;;;;;3.45;3.25;;;;;;;;;;5023308;28;20437;-65
2023/09/16 10:07:48;;;;;;;3.65;3.35;;;;;;;;;;5021733;28;20431;-65
2023/09/16 10:10:20;;;;;;;4.15;3.65;;;;;;;;;;5016768;28;20922;-65
2023/09/16 10:12:48;;;;;;;3.25;3.08;;;;;;;;;;5026612;28;20445;-65
2023/09/16 10:15:15;;;;;;;3.55;3.35;;;;;;;;;;5023922;28;20562;-65
2023/09/16 10:17:44;;;;;;;3.92;3.63;;;;;;;;;;5024334;28;20455;-65
2023/09/16 10:20:16;;;;;;;3.73;3.43;;;;;;;;;;5026674;28;20457;-65
2023/09/16 10:22:43;;;;;;;3.60;3.30;;;;;;;;;;5021239;28;20520;-64
2023/09/16 10:25:20;;;;;;;7.33;4.13;;;;;;;;;;5021477;28;20489;-65
2023/09/16 10:27:57;;;;;;;3.67;3.47;;;;;;;;;;5018640;28;20434;-65
2023/09/16 10:30:25;;;;;;;3.22;3.00;;;;;;;;;;5025294;28;20447;-65
2023/09/16 10:32:53;;;;;;;3.72;3.42;;;;;;;;;;5029290;28;20434;-65
2023/09/16 10:35:20;;;;;;;4.40;3.47;;;;;;;;;;5024354;28;20777;-65
2023/09/16 10:37:48;;;;;;;3.77;3.47;;;;;;;;;;5022097;28;20492;-65
2023/09/16 10:40:17;;;;;;;3.75;3.47;;;;;;;;;;5016126;28;20560;-65
2023/09/16 10:42:45;;;;;;;3.92;3.63;;;;;;;;;;5036936;28;20435;-66
2023/09/16 10:45:13;;;;;;;3.70;3.50;;;;;;;;;;5017022;28;20442;-65
2023/09/16 10:47:40;;;;;;;3.45;3.15;;;;;;;;;;5023114;28;20818;-64
2023/09/16 10:50:08;;;;;;;3.08;2.88;;;;;;;;;;5021455;28;20430;-65
2023/09/16 10:52:53;;;;;;;3.50;3.30;;;;;;;;;;5021100;28;20431;-65
2023/09/16 10:55:20;;;;;;;4.97;3.67;;;;;;;;;;5020613;28;20509;-65
2023/09/16 10:57:51;;;;;;;3.40;3.20;;;;;;;;;;5034767;28;20910;-66
2023/09/16 11:00:22;;;;;;;4.67;3.30;;;;;;;;;;5019064;28;20427;-66
2023/09/16 11:02:53;;;;;;;4.30;3.35;;;;;;;;;;5026085;28;20439;-67
2023/09/16 11:05:21;;;;;;;3.40;3.20;;;;;;;;;;5017446;28;20538;-66
2023/09/16 11:07:49;;;;;;;3.40;3.20;;;;;;;;;;5018757;28;20482;-66
2023/09/16 11:10:16;;;;;;;3.55;3.28;;;;;;;;;;5023986;28;20431;-65
2023/09/16 11:12:44;;;;;;;3.28;3.08;;;;;;;;;;5023650;28;20821;-66
2023/09/16 11:15:11;;;;;;;3.38;3.08;;;;;;;;;;5029871;28;20458;-66
2023/09/16 11:17:39;;;;;;;3.50;3.20;;;;;;;;;;5027489;28;20439;-66
2023/09/16 11:20:13;;;;;;;5.60;4.67;;;;;;;;;;5020774;28;20431;-65
2023/09/16 11:22:47;;;;;;;3.70;3.40;;;;;;;;;;5023988;28;21547;-67
2023/09/16 11:25:15;;;;;;;2.97;2.88;;;;;;;;;;5027220;28;20431;-66
2023/09/16 11:27:44;;;;;;;3.20;3.00;;;;;;;;;;5047092;28;20434;-66
2023/09/16 11:30:15;;;;;;;3.90;3.55;;;;;;;;;;5027437;28;20537;-66
2023/09/16 11:33:04;;;;;;;3.77;3.47;;;;;;;;;;5024112;28;21103;-65
2023/09/16 11:35:31;;;;;;;3.55;3.35;;;;;;;;;;5024860;28;20423;-66
2023/09/16 11:38:02;;;;;;;3.47;3.27;;;;;;;;;;5026567;28;20473;-66
2023/09/16 11:40:30;;;;;;;3.50;3.20;;;;;;;;;;5022482;28;21332;-67
2023/09/16 11:42:57;;;;;;;3.88;3.63;;;;;;;;;;5022609;28;21112;-66
2023/09/16 11:45:25;;;;;;;3.70;3.40;;;;;;;;;;5027294;28;20494;-67
2023/09/16 11:47:52;;;;;;;3.55;3.35;;;;;;;;;;5024648;28;20463;-67
2023/09/16 11:50:23;;;;;;;3.47;3.17;;;;;;;;;;5024158;28;20439;-66
2023/09/16 11:52:50;;;;;;;3.78;3.55;;;;;;;;;;5024971;28;20437;-66
2023/09/16 11:55:18;;;;;;;3.53;3.30;;;;;;;;;;5019587;28;20430;-66
2023/09/16 11:57:49;;;;;;;3.50;3.20;;;;;;;;;;5017189;28;20430;-66
2023/09/16 12:00:16;;;;;;;3.40;3.20;;;;;;;;;;5020629;28;20943;-64
2023/09/16 12:02:44;;;;;;;3.53;3.22;;;;;;;;;;5027896;28;20431;-66
2023/09/16 12:05:12;;;;;;;3.80;3.50;;;;;;;;;;5023334;28;20427;-65
2023/09/16 12:07:39;;;;;;;3.28;3.08;;;;;;;;;;5035668;28;20435;-66
2023/09/16 12:10:09;;;;;;;3.80;3.50;;;;;;;;;;5025439;28;20435;-66
2023/09/16 12:12:36;;;;;;;3.47;3.28;;;;;;;;;;5026947;28;20439;-66
2023/09/16 12:15:04;;;;;;;3.40;3.20;;;;;;;;;;5024045;28;20435;-66
2023/09/16 12:17:32;;;;;;;3.20;2.90;;;;;;;;;;5023356;28;20448;-66
2023/09/16 12:19:59;;;;;;;3.38;3.15;;;;;;;;;;5024466;28;20438;-66
2023/09/16 12:22:26;;;;;;;4.03;3.70;;;;;;;;;;5023684;28;20435;-66
2023/09/16 12:24:57;;;;;;;3.42;3.22;;;;;;;;;;5020192;28;20965;-66
2023/09/16 12:27:25;;;;;;;3.45;3.17;;;;;;;;;;5019204;28;20435;-66
2023/09/16 12:29:52;;;;;;;3.97;3.17;;;;;;;;;;5018227;28;20933;-66
2023/09/16 12:32:21;;;;;;;3.22;3.03;;;;;;;;;;5018954;28;20526;-66
2023/09/16 12:35:04;;;;;;;3.33;3.03;;;;;;;;;;5019893;28;20435;-67
2023/09/16 12:37:31;;;;;;;3.40;3.20;;;;;;;;;;5021858;28;20438;-66
2023/09/16 12:40:02;;;;;;;3.40;3.13;;;;;;;;;;5019338;28;20450;-66
2023/09/16 12:42:29;;;;;;;3.33;3.03;;;;;;;;;;5021532;28;20429;-66
2023/09/16 12:45:04;;;;;;;3.42;3.20;;;;;;;;;;5022955;28;20849;-65
2023/09/16 12:47:31;;;;;;;3.53;3.10;;;;;;;;;;5043142;28;20863;-66
2023/09/16 12:49:58;;;;;;;3.15;2.85;;;;;;;;;;5025805;28;20526;-65
2023/09/16 12:52:25;;;;;;;3.40;3.20;;;;;;;;;;5017974;28;20430;-66
2023/09/16 12:54:53;;;;;;;3.17;2.97;;;;;;;;;;5028859;28;20793;-65
2023/09/16 12:57:21;;;;;;;3.60;3.30;;;;;;;;;;5039096;28;20439;-66
2023/09/16 13:00:03;;;;;;;3.10;2.80;;;;;;;;;;5020640;28;20539;-66
2023/09/16 13:02:35;;;;;;;2.90;2.70;;;;;;;;;;5020403;28;20575;-66
2023/09/16 13:05:28;;;;;;;3.05;2.85;;;;;;;;;;5018711;28;20817;-67
2023/09/16 13:07:58;;;;;;;2.60;2.50;;;;;;;;;;5022354;28;20474;-66
2023/09/16 13:10:32;;;;;;;4.10;2.95;;;;;;;;;;5023616;28;20692;-67
2023/09/16 13:12:59;;;;;;;2.63;2.53;;;;;;;;;;5021795;28;20522;-66
2023/09/16 13:15:26;;;;;;;2.72;2.63;;;;;;;;;;5027708;28;20514;-67
2023/09/16 13:17:59;;;;;;;2.70;2.60;;;;;;;;;;5020687;28;20433;-66
2023/09/16 13:20:39;;;;;;;3.00;2.83;;;;;;;;;;5020264;28;20446;-67
2023/09/16 13:23:07;;;;;;;3.00;2.80;;;;;;;;;;5022101;28;20873;-67
2023/09/16 13:25:40;;;;;;;2.88;2.65;;;;;;;;;;5022335;28;20441;-66
2023/09/16 13:28:10;;;;;;;3.20;2.83;;;;;;;;;;5021949;28;21092;-66
2023/09/16 13:30:38;;;;;;;3.20;3.00;;;;;;;;;;5024352;28;20458;-67
2023/09/16 13:33:06;;;;;;;4.03;2.83;;;;;;;;;;5018186;28;20439;-66
2023/09/16 13:35:37;;;;;;;3.05;2.85;;;;;;;;;;5026218;28;20434;-66
2023/09/16 13:38:05;;;;;;;3.10;2.85;;;;;;;;;;5022163;28;20440;-65
2023/09/16 13:40:33;;;;;;;2.50;2.40;;;;;;;;;;5022917;28;20434;-66
2023/09/16 13:43:00;;;;;;;3.17;2.93;;;;;;;;;;5024737;28;20466;-66
2023/09/16 13:45:28;;;;;;;2.70;2.50;;;;;;;;;;5020093;28;20433;-66
2023/09/16 13:48:09;;;;;;;2.80;2.60;;;;;;;;;;5023934;28;20517;-66
2023/09/16 13:50:43;;;;;;;2.83;2.72;;;;;;;;;;5022828;28;20574;-65
2023/09/16 13:53:11;;;;;;;3.22;2.85;;;;;;;;;;5017920;28;20434;-67
2023/09/16 13:55:45;;;;;;;5.32;2.90;;;;;;;;;;5027848;28;20514;-65
2023/09/16 13:58:13;;;;;;;2.88;2.78;;;;;;;;;;5035914;28;20438;-66
2023/09/16 14:00:40;;;;;;;4.60;3.03;;;;;;;;;;5022689;28;20436;-66
2023/09/16 14:03:10;;;;;;;2.72;2.53;;;;;;;;;;5020818;28;20434;-67
2023/09/16 14:05:40;;;;;;;4.03;2.67;;;;;;;;;;5026841;28;20462;-65
2023/09/16 14:08:07;;;;;;;2.80;2.45;;;;;;;;;;5024040;28;20434;-65
2023/09/16 14:10:37;;;;;;;2.47;2.35;;;;;;;;;;5035295;28;20886;-66
2023/09/16 14:13:08;;;;;;;2.78;2.65;;;;;;;;;;5026120;28;21184;-66
2023/09/16 14:15:36;;;;;;;2.92;2.72;;;;;;;;;;5025789;28;20483;-67
2023/09/16 14:18:06;;;;;;;2.40;2.30;;;;;;;;;;5022568;28;20440;-67
2023/09/16 14:20:37;;;;;;;3.00;2.80;;;;;;;;;;5024355;28;20440;-66
2023/09/16 14:23:05;;;;;;;3.67;3.40;;;;;;;;;;5024600;28;20500;-66
2023/09/16 14:25:33;;;;;;;3.05;2.83;;;;;;;;;;5020433;28;21489;-67
2023/09/16 14:28:01;;;;;;;2.60;2.50;;;;;;;;;;5026851;28;20931;-67